Time;durP1;ratioP1;P1;durP2;ratioP2;P2;SDS_P1;SDS_P2;PMS_P1;PMS_P2;Temp;Humidity;BMP_temperature;BMP_pressure;BME280_temperature;BME280_humidity;BME280_pressure;Samples;Min_cycle;Max_cycle;Signal;HPM_P1;HPM_P2
2022/06/18 00:02:13;;;;;;;0.40;0.40;;;18.60;99.90;;;;;;5145337;28;20128;-76
2022/06/18 00:04:39;;;;;;;0.43;0.32;;;18.60;99.90;;;;;;5111126;28;20409;-76
2022/06/18 00:07:10;;;;;;;0.75;0.40;;;18.50;99.90;;;;;;5127821;28;20044;-76
2022/06/18 00:09:41;;;;;;;0.77;0.50;;;18.50;99.90;;;;;;5128266;28;20040;-75
2022/06/18 00:15:17;;;;;;;0.68;0.30;;;18.50;99.90;;;;;;5162235;27;20051;-75
2022/06/18 00:17:45;;;;;;;0.88;0.63;;;18.40;99.90;;;;;;5110953;28;20069;-76
2022/06/18 00:20:13;;;;;;;0.28;0.28;;;18.40;99.90;;;;;;5144463;28;20059;-76
2022/06/18 00:22:42;;;;;;;0.63;0.40;;;18.30;99.90;;;;;;5128163;28;20046;-76
2022/06/18 00:25:23;;;;;;;0.32;0.25;;;18.30;99.90;;;;;;5111071;28;20040;-76
2022/06/18 00:27:50;;;;;;;0.45;0.40;;;18.20;99.90;;;;;;5144698;28;20083;-76
2022/06/18 00:30:20;;;;;;;0.47;0.22;;;18.20;99.90;;;;;;5127680;28;20076;-75
2022/06/18 00:32:47;;;;;;;0.30;0.30;;;18.20;99.90;;;;;;5109801;28;20512;-76
2022/06/18 00:35:15;;;;;;;0.35;0.30;;;18.20;99.90;;;;;;5127544;28;20044;-76
2022/06/18 00:37:43;;;;;;;0.30;0.30;;;18.10;99.90;;;;;;5127972;28;20085;-75
2022/06/18 00:40:16;;;;;;;0.88;0.25;;;18.10;99.90;;;;;;5111020;28;20119;-75
2022/06/18 00:42:44;;;;;;;0.63;0.38;;;18.10;99.90;;;;;;5127471;28;20075;-75
2022/06/18 00:45:17;;;;;;;0.70;0.40;;;18.00;99.90;;;;;;5127367;28;20085;-75
2022/06/18 00:47:56;;;;;;;0.60;0.30;;;18.00;99.90;;;;;;5143975;28;20051;-76
2022/06/18 00:50:32;;;;;;;0.32;0.32;;;18.00;99.90;;;;;;5127500;28;20083;-75
2022/06/18 00:53:20;;;;;;;0.90;0.50;;;18.00;99.90;;;;;;5127292;28;20040;-76
2022/06/18 00:56:19;;;;;;;1.10;0.70;;;18.00;99.90;;;;;;5127043;28;20048;-76
2022/06/18 00:59:03;;;;;;;1.33;0.60;;;18.00;99.90;;;;;;5094955;28;20433;-76
2022/06/18 01:01:38;;;;;;;1.02;0.68;;;18.10;99.90;;;;;;5140617;28;20072;-75
2022/06/18 01:04:40;;;;;;;0.43;0.40;;;18.10;99.90;;;;;;5140213;28;20050;-75
2022/06/18 01:07:36;;;;;;;0.50;0.50;;;18.10;99.90;;;;;;5048217;28;20808;-75
2022/06/18 01:10:10;;;;;;;0.30;0.30;;;18.10;99.90;;;;;;5104044;28;20044;-75
2022/06/18 01:12:36;;;;;;;0.40;0.40;;;18.10;99.90;;;;;;5110172;28;20036;-75
2022/06/18 01:15:07;;;;;;;0.90;0.52;;;18.00;99.90;;;;;;5125153;28;20039;-76
2022/06/18 01:17:36;;;;;;;0.63;0.47;;;18.00;99.90;;;;;;5134472;28;20074;-76
2022/06/18 01:20:07;;;;;;;0.63;0.50;;;18.00;99.90;;;;;;5098116;28;20051;-76
2022/06/18 01:22:58;;;;;;;0.70;0.43;;;18.00;99.90;;;;;;5117449;28;20041;-75
2022/06/18 01:25:27;;;;;;;0.65;0.38;;;18.00;99.90;;;;;;5123538;28;20093;-76
2022/06/18 01:27:56;;;;;;;0.20;0.20;;;18.00;99.90;;;;;;5106066;28;20486;-75
2022/06/18 01:30:25;;;;;;;0.85;0.60;;;18.00;99.90;;;;;;5106799;28;20093;-76
2022/06/18 01:32:55;;;;;;;0.95;0.57;;;18.00;99.90;;;;;;5122528;28;20056;-76
2022/06/18 01:35:23;;;;;;;0.75;0.40;;;18.00;99.90;;;;;;5119263;28;20048;-75
2022/06/18 01:37:50;;;;;;;0.55;0.45;;;18.00;99.90;;;;;;5126269;28;20076;-76
2022/06/18 01:40:36;;;;;;;1.48;0.70;;;18.00;99.90;;;;;;5126576;28;20071;-76
2022/06/18 01:43:04;;;;;;;0.60;0.40;;;18.00;99.90;;;;;;5109326;28;20039;-75
2022/06/18 01:45:35;;;;;;;0.88;0.50;;;17.90;99.90;;;;;;5109641;28;20043;-76
2022/06/18 01:48:16;;;;;;;0.70;0.40;;;17.90;99.90;;;;;;5160006;27;20048;-75
2022/06/18 01:50:58;;;;;;;0.63;0.40;;;17.90;99.90;;;;;;5143207;28;20100;-76
2022/06/18 01:53:30;;;;;;;0.40;0.30;;;17.80;99.90;;;;;;5109514;28;20130;-76
2022/06/18 01:56:02;;;;;;;0.20;0.20;;;17.80;99.90;;;;;;5109101;28;20544;-76
2022/06/18 01:58:36;;;;;;;0.60;0.43;;;17.80;99.90;;;;;;5126810;28;20040;-76
2022/06/18 02:01:06;;;;;;;0.30;0.30;;;17.80;99.90;;;;;;5108601;28;20058;-76
2022/06/18 02:03:32;;;;;;;0.52;0.40;;;17.70;99.90;;;;;;5109340;28;20040;-76
2022/06/18 02:06:00;;;;;;;0.50;0.30;;;17.70;99.90;;;;;;5142264;28;20084;-75
2022/06/18 02:08:27;;;;;;;0.30;0.30;;;17.70;99.90;;;;;;5109073;28;20189;-76
2022/06/18 02:10:59;;;;;;;0.90;0.40;;;17.60;99.90;;;;;;5143003;28;20122;-75
2022/06/18 02:13:31;;;;;;;0.88;0.55;;;17.60;99.90;;;;;;5125448;28;20040;-76
2022/06/18 02:16:01;;;;;;;0.52;0.45;;;17.60;99.90;;;;;;5125567;28;20036;-76
2022/06/18 02:18:29;;;;;;;0.60;0.40;;;17.60;99.90;;;;;;5141923;28;20044;-75
2022/06/18 02:20:58;;;;;;;0.60;0.50;;;17.60;99.90;;;;;;5125897;28;20040;-75
2022/06/18 02:23:25;;;;;;;0.30;0.30;;;17.50;99.90;;;;;;5142519;28;20044;-75
2022/06/18 02:25:52;;;;;;;0.50;0.38;;;17.50;99.90;;;;;;5125368;28;20040;-76
2022/06/18 02:28:23;;;;;;;0.60;0.45;;;17.50;99.90;;;;;;5108333;28;20054;-76
2022/06/18 02:30:52;;;;;;;0.82;0.40;;;17.40;99.90;;;;;;5125515;28;20124;-76
2022/06/18 02:33:28;;;;;;;0.60;0.40;;;17.50;99.90;;;;;;5107920;28;20394;-75
2022/06/18 02:35:59;;;;;;;0.80;0.50;;;17.40;99.90;;;;;;5125761;28;20122;-76
2022/06/18 02:38:26;;;;;;;0.75;0.50;;;17.40;99.90;;;;;;5108486;28;20460;-76
2022/06/18 02:40:52;;;;;;;0.85;0.50;;;17.40;99.90;;;;;;5125732;28;20040;-76
2022/06/18 02:43:21;;;;;;;0.55;0.50;;;17.40;99.90;;;;;;5142057;28;20047;-75
2022/06/18 02:45:53;;;;;;;1.67;1.00;;;17.30;99.90;;;;;;5108255;28;20048;-75
2022/06/18 02:48:27;;;;;;;0.47;0.40;;;17.30;99.90;;;;;;5124624;28;20048;-75
2022/06/18 02:50:57;;;;;;;0.50;0.30;;;17.30;99.90;;;;;;5141525;28;20127;-75
2022/06/18 02:53:25;;;;;;;0.60;0.40;;;17.40;99.90;;;;;;5124044;28;20062;-75
2022/06/18 02:55:58;;;;;;;0.45;0.45;;;17.40;99.90;;;;;;5107940;28;20043;-76
2022/06/18 02:58:28;;;;;;;0.63;0.50;;;17.40;99.90;;;;;;5107296;28;20032;-75
2022/06/18 03:01:01;;;;;;;0.60;0.50;;;17.50;99.90;;;;;;5124836;28;20513;-75
2022/06/18 03:03:31;;;;;;;0.90;0.55;;;17.50;99.90;;;;;;5124830;28;20047;-76
2022/06/18 03:05:58;;;;;;;0.60;0.47;;;17.50;99.90;;;;;;5107962;28;20551;-75
2022/06/18 03:08:26;;;;;;;0.73;0.50;;;17.50;99.90;;;;;;5141157;28;20043;-75
2022/06/18 03:13:39;;;;;;;1.25;0.52;;;17.50;99.90;;;;;;5158737;27;20048;-76
2022/06/18 03:16:09;;;;;;;1.27;0.85;;;17.50;99.90;;;;;;5107342;28;20044;-75
2022/06/18 03:18:38;;;;;;;0.77;0.43;;;17.60;99.90;;;;;;5107949;28;20405;-75
2022/06/18 03:21:25;;;;;;;1.05;0.70;;;17.60;99.90;;;;;;5107503;28;20044;-75
2022/06/18 03:23:53;;;;;;;0.90;0.43;;;17.70;99.90;;;;;;5104457;28;20099;-75
2022/06/18 03:26:20;;;;;;;0.30;0.30;;;17.70;99.90;;;;;;5087406;28;20077;-75
2022/06/18 03:28:47;;;;;;;0.85;0.60;;;17.70;99.90;;;;;;5120726;28;20073;-76
2022/06/18 03:31:13;;;;;;;1.02;0.70;;;17.80;99.90;;;;;;5124470;28;20044;-75
2022/06/18 03:33:41;;;;;;;1.38;0.80;;;17.80;99.90;;;;;;5124194;28;20059;-76
2022/06/18 03:36:10;;;;;;;0.75;0.50;;;17.80;99.90;;;;;;5141136;28;20044;-76
2022/06/18 03:38:37;;;;;;;1.00;0.55;;;17.80;99.90;;;;;;5107912;28;20043;-75
2022/06/18 03:41:05;;;;;;;0.85;0.50;;;17.80;99.90;;;;;;5141220;28;20032;-75
2022/06/18 03:43:31;;;;;;;0.57;0.57;;;17.80;99.90;;;;;;5124279;28;20058;-76
2022/06/18 03:46:01;;;;;;;0.93;0.50;;;17.90;99.90;;;;;;5124539;28;20051;-75
2022/06/18 03:48:46;;;;;;;0.65;0.45;;;17.90;99.90;;;;;;5124091;28;20059;-76
2022/06/18 03:51:14;;;;;;;1.00;0.63;;;17.90;99.90;;;;;;5124003;28;20063;-75
2022/06/18 03:53:41;;;;;;;0.60;0.40;;;17.80;99.90;;;;;;5124329;28;20324;-76
2022/06/18 03:56:13;;;;;;;0.95;0.73;;;17.90;99.90;;;;;;5124367;28;20055;-76
2022/06/18 03:58:42;;;;;;;1.27;0.88;;;17.90;99.90;;;;;;5124242;28;20036;-75
2022/06/18 04:01:10;;;;;;;0.70;0.52;;;17.90;99.90;;;;;;5107683;28;20513;-76
2022/06/18 04:03:37;;;;;;;1.30;0.77;;;17.90;99.90;;;;;;5124389;28;20048;-76
2022/06/18 04:06:04;;;;;;;0.85;0.57;;;17.80;99.90;;;;;;5140879;28;20047;-75
2022/06/18 04:08:30;;;;;;;0.75;0.60;;;17.80;99.90;;;;;;5123817;28;20122;-76
2022/06/18 04:10:58;;;;;;;0.45;0.38;;;17.90;99.90;;;;;;5124194;28;20126;-76
2022/06/18 04:13:28;;;;;;;1.15;0.57;;;17.90;99.90;;;;;;5123981;28;20044;-75
2022/06/18 04:15:55;;;;;;;0.80;0.63;;;17.90;99.90;;;;;;5140973;28;20425;-75
2022/06/18 04:18:22;;;;;;;1.10;0.60;;;17.90;99.90;;;;;;5123908;28;20032;-75
2022/06/18 04:20:49;;;;;;;0.65;0.43;;;17.90;99.90;;;;;;5124077;28;20374;-75
2022/06/18 04:23:15;;;;;;;0.40;0.40;;;17.90;99.90;;;;;;5123800;28;20062;-75
2022/06/18 04:25:43;;;;;;;0.50;0.43;;;18.00;99.90;;;;;;5124195;28;20110;-75
2022/06/18 04:28:15;;;;;;;0.70;0.60;;;18.00;99.90;;;;;;5107182;28;20412;-75
2022/06/18 04:30:42;;;;;;;0.85;0.60;;;17.90;99.90;;;;;;5141364;28;20097;-75
2022/06/18 04:33:09;;;;;;;1.67;0.40;;;17.90;99.90;;;;;;5123490;28;20052;-75
2022/06/18 04:35:36;;;;;;;0.73;0.65;;;18.00;99.90;;;;;;5123724;28;20075;-76
2022/06/18 04:38:03;;;;;;;1.08;0.75;;;17.90;99.90;;;;;;5124183;28;20078;-75
2022/06/18 04:40:33;;;;;;;1.08;0.73;;;18.00;99.90;;;;;;5125028;28;20044;-76
2022/06/18 04:43:05;;;;;;;0.60;0.60;;;17.90;99.90;;;;;;5127225;28;20127;-76
2022/06/18 04:45:33;;;;;;;1.02;0.57;;;17.90;99.90;;;;;;5127149;28;20481;-76
2022/06/18 04:48:00;;;;;;;1.25;0.90;;;17.90;99.90;;;;;;5127623;28;20055;-75
2022/06/18 04:50:30;;;;;;;1.48;0.73;;;17.90;99.90;;;;;;5144108;28;20473;-76
2022/06/18 04:52:57;;;;;;;1.45;0.77;;;17.90;99.90;;;;;;5110433;28;20040;-76
2022/06/18 04:55:24;;;;;;;2.40;0.70;;;17.90;99.90;;;;;;5143809;28;20043;-76
2022/06/18 04:57:51;;;;;;;0.82;0.63;;;17.90;99.90;;;;;;5110450;28;20408;-75
2022/06/18 05:00:18;;;;;;;1.15;0.60;;;17.90;99.90;;;;;;5126784;28;20052;-76
2022/06/18 05:02:46;;;;;;;0.82;0.68;;;17.90;99.90;;;;;;5110453;28;20048;-76
2022/06/18 05:05:17;;;;;;;1.15;0.63;;;17.90;99.90;;;;;;5127274;28;20079;-75
2022/06/18 05:07:44;;;;;;;1.17;0.90;;;17.90;99.90;;;;;;5126967;28;20040;-75
2022/06/18 05:10:12;;;;;;;0.90;0.55;;;17.90;99.90;;;;;;5127079;28;20040;-75
2022/06/18 05:12:39;;;;;;;0.95;0.70;;;17.90;99.90;;;;;;5109551;28;20047;-75
2022/06/18 05:15:07;;;;;;;0.85;0.70;;;18.00;99.90;;;;;;5127037;28;20043;-75
2022/06/18 05:17:36;;;;;;;0.98;0.75;;;18.00;99.90;;;;;;5109775;28;20059;-75
2022/06/18 05:20:04;;;;;;;0.50;0.50;;;18.00;99.90;;;;;;5127003;28;20040;-75
2022/06/18 05:22:31;;;;;;;1.10;0.85;;;18.00;99.90;;;;;;5109518;28;20119;-76
2022/06/18 05:24:58;;;;;;;0.93;0.60;;;18.00;99.90;;;;;;5126640;28;20151;-76
2022/06/18 05:27:30;;;;;;;0.60;0.60;;;18.10;99.90;;;;;;5126388;28;20036;-76
2022/06/18 05:29:57;;;;;;;1.25;0.57;;;18.00;99.90;;;;;;5126627;28;20055;-76
2022/06/18 05:32:24;;;;;;;1.08;0.63;;;18.10;99.90;;;;;;5108898;28;20044;-76
2022/06/18 05:34:50;;;;;;;1.27;0.88;;;18.10;99.90;;;;;;5127082;28;20047;-76
2022/06/18 05:37:21;;;;;;;2.50;1.23;;;18.20;99.90;;;;;;5126635;28;20516;-75
2022/06/18 05:39:47;;;;;;;1.25;0.68;;;18.20;99.90;;;;;;5126182;28;20040;-75
2022/06/18 05:42:14;;;;;;;0.85;0.65;;;18.20;99.90;;;;;;5126657;28;20042;-75
2022/06/18 05:44:41;;;;;;;1.00;0.68;;;18.30;99.90;;;;;;5125907;28;20039;-76
2022/06/18 05:47:19;;;;;;;1.10;0.70;;;18.30;99.90;;;;;;5143062;28;20043;-76
2022/06/18 05:49:46;;;;;;;1.25;0.77;;;18.40;99.90;;;;;;5125983;28;20036;-75
2022/06/18 05:52:13;;;;;;;0.82;0.65;;;18.40;99.90;;;;;;5114904;28;20036;-76
2022/06/18 05:54:40;;;;;;;1.45;0.85;;;18.50;99.90;;;;;;5104801;28;20036;-76
2022/06/18 05:57:07;;;;;;;1.10;0.77;;;18.50;99.90;;;;;;5114044;28;20040;-75
2022/06/18 05:59:33;;;;;;;1.52;0.93;;;18.50;99.90;;;;;;5100027;28;20040;-76
2022/06/18 06:02:00;;;;;;;1.85;1.02;;;18.60;99.90;;;;;;5084389;28;20066;-76
2022/06/18 06:04:28;;;;;;;2.58;1.17;;;18.70;99.90;;;;;;5114831;28;20044;-76
2022/06/18 06:06:56;;;;;;;2.10;1.00;;;18.70;99.90;;;;;;5116421;28;20050;-76
2022/06/18 06:12:11;;;;;;;0.77;0.60;;;18.70;99.90;;;;;;5124195;28;20074;-75
2022/06/18 06:14:39;;;;;;;0.90;0.80;;;18.70;99.90;;;;;;5109136;28;20040;-76
2022/06/18 06:17:15;;;;;;;0.90;0.65;;;18.80;99.90;;;;;;5126128;28;20087;-76
2022/06/18 06:19:42;;;;;;;3.03;1.30;;;18.80;99.90;;;;;;5109223;28;20040;-76
2022/06/18 06:22:09;;;;;;;1.88;0.80;;;18.90;99.90;;;;;;5126193;28;20073;-76
2022/06/18 06:24:36;;;;;;;1.02;0.80;;;19.00;99.90;;;;;;5125720;28;20079;-76
2022/06/18 06:27:03;;;;;;;1.50;1.00;;;19.00;99.90;;;;;;5117357;28;20515;-76
2022/06/18 06:29:31;;;;;;;2.25;1.23;;;19.00;99.90;;;;;;5134037;28;20106;-77
2022/06/18 06:31:58;;;;;;;1.67;0.93;;;19.10;99.90;;;;;;5142544;28;20476;-76
2022/06/18 06:34:24;;;;;;;1.38;0.85;;;19.20;99.90;;;;;;5124610;28;20085;-77
2022/06/18 06:36:51;;;;;;;1.55;1.15;;;19.30;99.90;;;;;;5142345;28;20062;-77
2022/06/18 06:39:18;;;;;;;1.10;0.88;;;19.30;99.90;;;;;;5168561;27;20044;-77
2022/06/18 06:41:45;;;;;;;1.73;1.08;;;19.40;99.90;;;;;;5108286;28;20040;-77
2022/06/18 06:44:12;;;;;;;0.88;0.70;;;19.60;99.90;;;;;;5108539;28;20055;-76
2022/06/18 06:46:39;;;;;;;1.88;1.00;;;19.70;99.90;;;;;;5124339;28;20857;-77
2022/06/18 06:49:05;;;;;;;1.13;0.77;;;19.80;99.90;;;;;;5104597;28;20187;-77
2022/06/18 06:51:36;;;;;;;1.15;0.82;;;19.90;99.90;;;;;;5085464;28;20069;-77
2022/06/18 06:54:03;;;;;;;1.15;0.80;;;20.10;99.90;;;;;;5106004;28;20123;-77
2022/06/18 06:59:15;;;;;;;1.50;0.85;;;20.20;99.90;;;;;;5139607;28;20051;-77
2022/06/18 07:01:42;;;;;;;1.23;0.90;;;20.30;99.90;;;;;;5124809;28;20040;-77
2022/06/18 07:04:11;;;;;;;0.70;0.68;;;20.40;99.90;;;;;;5142085;28;20050;-78
2022/06/18 07:06:38;;;;;;;3.30;1.00;;;20.40;99.90;;;;;;5124811;28;20071;-77
2022/06/18 07:09:06;;;;;;;1.83;0.90;;;20.50;99.90;;;;;;5142210;28;20048;-77
2022/06/18 07:11:34;;;;;;;1.02;0.75;;;20.50;99.90;;;;;;5103207;28;20562;-76
2022/06/18 07:14:01;;;;;;;1.17;0.65;;;20.60;99.90;;;;;;5132632;28;20489;-78
2022/06/18 07:16:27;;;;;;;1.42;0.85;;;20.70;99.90;;;;;;5099362;28;20093;-78
2022/06/18 07:18:56;;;;;;;1.05;0.75;;;20.80;99.90;;;;;;5149232;27;20040;-78
2022/06/18 07:21:23;;;;;;;1.67;0.90;;;20.80;99.90;;;;;;5091246;28;20485;-76
2022/06/18 07:23:50;;;;;;;1.33;0.77;;;20.90;99.90;;;;;;5121003;28;20097;-75
2022/06/18 07:26:21;;;;;;;1.02;0.70;;;21.00;99.90;;;;;;5088183;28;20099;-77
2022/06/18 07:28:48;;;;;;;0.45;0.45;;;21.10;99.90;;;;;;5098042;28;20086;-77
2022/06/18 07:31:23;;;;;;;1.00;0.80;;;21.20;99.90;;;;;;5124660;28;20044;-77
2022/06/18 07:33:51;;;;;;;1.30;0.80;;;21.30;99.90;;;;;;5107276;28;20056;-77
2022/06/18 07:36:19;;;;;;;0.60;0.50;;;21.40;99.90;;;;;;5124425;28;20085;-78
2022/06/18 07:38:45;;;;;;;1.23;0.70;;;21.50;99.90;;;;;;5106012;28;20119;-78
2022/06/18 07:41:16;;;;;;;1.27;0.80;;;21.60;99.90;;;;;;5091252;28;20510;-76
2022/06/18 07:43:47;;;;;;;1.20;0.77;;;21.70;99.90;;;;;;5123872;28;20048;-78
2022/06/18 07:46:14;;;;;;;0.73;0.63;;;21.80;99.90;;;;;;5101707;28;20134;-76
2022/06/18 07:48:41;;;;;;;1.05;0.70;;;21.90;99.90;;;;;;5152651;28;20064;-79
2022/06/18 07:51:08;;;;;;;1.27;0.80;;;21.90;99.90;;;;;;5121976;28;20102;-77
2022/06/18 07:53:35;;;;;;;1.08;0.70;;;22.00;99.90;;;;;;5109009;28;20459;-77
2022/06/18 07:56:03;;;;;;;0.93;0.43;;;22.00;99.90;;;;;;5132036;28;20119;-75
2022/06/18 07:58:31;;;;;;;1.00;0.82;;;22.00;99.90;;;;;;5143349;28;20097;-76
2022/06/18 08:00:58;;;;;;;0.98;0.70;;;22.10;99.90;;;;;;5107542;28;20036;-77
2022/06/18 08:03:25;;;;;;;0.73;0.50;;;22.20;99.90;;;;;;5124473;28;20047;-77
2022/06/18 08:05:53;;;;;;;0.55;0.47;;;22.20;99.90;;;;;;5141435;28;20047;-77
2022/06/18 08:08:20;;;;;;;0.70;0.50;;;22.30;99.90;;;;;;5124987;28;20081;-78
2022/06/18 08:10:50;;;;;;;0.90;0.60;;;22.30;99.90;;;;;;5123774;28;20502;-76
2022/06/18 08:13:17;;;;;;;0.98;0.70;;;22.40;99.90;;;;;;5107502;28;20060;-77
2022/06/18 08:15:44;;;;;;;0.82;0.65;;;22.40;99.90;;;;;;5108944;28;20509;-76
2022/06/18 08:18:10;;;;;;;0.65;0.55;;;22.50;99.90;;;;;;5145572;28;20047;-77
2022/06/18 08:20:37;;;;;;;1.00;0.57;;;22.60;99.90;;;;;;5128114;28;20578;-78
2022/06/18 08:23:06;;;;;;;0.90;0.60;;;22.60;99.90;;;;;;5128045;28;20097;-78
2022/06/18 08:25:34;;;;;;;0.63;0.45;;;22.60;99.90;;;;;;5128414;28;20048;-76
2022/06/18 08:28:03;;;;;;;0.95;0.60;;;22.80;99.90;;;;;;5128073;28;20797;-78
2022/06/18 08:30:30;;;;;;;1.00;0.60;;;22.90;99.90;;;;;;5128466;28;20043;-78
2022/06/18 08:32:57;;;;;;;0.40;0.40;;;23.10;99.90;;;;;;5144779;28;20052;-77
2022/06/18 08:35:24;;;;;;;0.40;0.38;;;23.00;99.90;;;;;;5145039;28;20043;-77
2022/06/18 08:37:52;;;;;;;0.50;0.50;;;23.10;99.90;;;;;;5110405;28;20127;-77
2022/06/18 08:40:37;;;;;;;0.60;0.55;;;23.10;99.90;;;;;;5127620;28;20435;-77
2022/06/18 08:43:30;;;;;;;0.70;0.60;;;23.10;99.90;;;;;;5117201;28;20185;-78
2022/06/18 08:46:09;;;;;;;0.43;0.38;;;23.20;99.90;;;;;;5107211;28;20065;-77
2022/06/18 08:49:04;;;;;;;0.40;0.40;;;23.30;99.90;;;;;;5126462;28;20036;-77
2022/06/18 08:51:45;;;;;;;0.40;0.40;;;23.30;99.90;;;;;;5109397;28;20434;-78
2022/06/18 08:54:42;;;;;;;0.70;0.50;;;23.20;99.90;;;;;;5136663;28;20068;-78
2022/06/18 08:57:27;;;;;;;0.70;0.57;;;23.30;99.90;;;;;;5107922;28;20043;-79
2022/06/18 09:00:13;;;;;;;0.50;0.50;;;23.50;99.90;;;;;;5116822;28;20039;-76
2022/06/18 09:02:40;;;;;;;0.22;0.22;;;23.50;99.90;;;;;;5127743;28;20040;-78
2022/06/18 09:05:16;;;;;;;0.30;0.20;;;23.50;99.90;;;;;;5110824;28;20440;-78
2022/06/18 09:07:51;;;;;;;0.40;0.30;;;23.40;99.90;;;;;;5128192;28;20065;-79
2022/06/18 09:10:59;;;;;;;0.38;0.30;;;23.60;99.90;;;;;;5110670;28;20048;-78
2022/06/18 09:13:34;;;;;;;0.32;0.32;;;23.60;99.90;;;;;;5100839;28;20512;-78
2022/06/18 09:16:07;;;;;;;0.35;0.35;;;23.70;99.90;;;;;;5126044;28;20146;-78
2022/06/18 09:18:39;;;;;;;0.68;0.52;;;23.70;99.90;;;;;;5104104;28;20044;-78
2022/06/18 09:21:14;;;;;;;0.43;0.43;;;23.90;99.90;;;;;;5144408;28;20098;-79
2022/06/18 09:24:02;;;;;;;0.82;0.50;;;24.00;99.90;;;;;;5111445;28;20044;-81
2022/06/18 09:26:42;;;;;;;0.50;0.43;;;24.00;99.90;;;;;;5105005;28;20148;-78
2022/06/18 09:29:30;;;;;;;0.43;0.40;;;24.00;99.90;;;;;;5127392;28;20044;-77
2022/06/18 09:32:06;;;;;;;1.27;0.73;;;24.00;99.90;;;;;;5104082;28;20109;-82
2022/06/18 09:34:48;;;;;;;0.60;0.30;;;24.10;99.90;;;;;;5103560;28;20051;-80
2022/06/18 09:37:35;;;;;;;0.38;0.30;;;23.90;99.90;;;;;;5094651;28;20060;-80
2022/06/18 09:40:05;;;;;;;0.30;0.30;;;24.10;99.90;;;;;;5131073;28;20080;-80
2022/06/18 09:42:42;;;;;;;0.57;0.40;;;24.10;99.90;;;;;;5111329;28;20072;-80
2022/06/18 09:45:24;;;;;;;0.52;0.30;;;24.10;99.90;;;;;;5111112;28;20122;-80
2022/06/18 09:47:52;;;;;;;0.30;0.30;;;24.10;99.90;;;;;;5144081;28;20056;-80
2022/06/18 09:50:40;;;;;;;0.40;0.28;;;24.20;99.90;;;;;;5077262;28;20032;-80
2022/06/18 09:53:22;;;;;;;0.30;0.30;;;24.20;99.90;;;;;;5109410;28;20124;-80
2022/06/18 09:55:53;;;;;;;0.70;0.50;;;24.30;99.90;;;;;;5111032;28;20089;-80
2022/06/18 09:58:30;;;;;;;0.20;0.20;;;24.50;99.90;;;;;;5110740;28;20488;-81
2022/06/18 10:00:58;;;;;;;0.20;0.20;;;24.50;99.90;;;;;;5127250;28;20036;-80
2022/06/18 10:09:07;;;;;;;0.20;0.20;;;24.60;99.90;;;;;;5127116;28;20047;-80
2022/06/18 10:11:34;;;;;;;0.20;0.20;;;24.70;99.90;;;;;;5136432;28;20441;-80
2022/06/18 10:14:12;;;;;;;0.28;0.28;;;24.70;99.90;;;;;;5106845;28;20132;-81
2022/06/18 10:16:57;;;;;;;0.10;0.10;;;24.60;99.90;;;;;;5090427;28;20083;-80
2022/06/18 10:19:36;;;;;;;0.20;0.20;;;24.60;99.90;;;;;;5114789;28;20044;-80
2022/06/18 10:22:14;;;;;;;0.20;0.20;;;24.60;99.90;;;;;;5098584;28;20381;-80
2022/06/18 10:24:52;;;;;;;0.10;0.10;;;24.80;99.90;;;;;;5107552;28;20044;-80
2022/06/18 10:27:33;;;;;;;0.20;0.20;;;24.90;99.90;;;;;;5098623;28;20044;-81
2022/06/18 10:30:06;;;;;;;0.20;0.20;;;24.90;99.90;;;;;;5109154;28;20071;-81
2022/06/18 10:33:09;;;;;;;0.20;0.20;;;24.90;99.90;;;;;;5093022;28;20053;-82
2022/06/18 10:35:58;;;;;;;0.15;0.15;;;24.80;99.90;;;;;;5106161;28;20040;-81
2022/06/18 10:38:43;;;;;;;0.15;0.15;;;24.80;99.90;;;;;;5133810;28;20432;-81
2022/06/18 10:41:13;;;;;;;;;;;24.70;99.90;;;;;;5132772;28;20043;-82
2022/06/18 10:43:51;;;;;;;0.10;0.10;;;24.90;99.90;;;;;;5135085;28;20057;-83
2022/06/18 10:46:21;;;;;;;0.20;0.20;;;24.90;99.90;;;;;;5119360;28;20044;-81
2022/06/18 10:48:52;;;;;;;3.92;0.40;;;25.00;99.90;;;;;;5139011;28;20039;-81
2022/06/18 10:51:22;;;;;;;0.10;0.10;;;25.20;99.90;;;;;;5096399;28;20093;-82
2022/06/18 10:54:03;;;;;;;0.13;0.13;;;25.30;99.90;;;;;;5089815;28;20041;-82
2022/06/18 10:56:33;;;;;;;0.17;0.13;;;25.40;99.90;;;;;;5106270;28;20048;-82
2022/06/18 10:59:02;;;;;;;0.20;0.20;;;25.50;99.90;;;;;;5128527;28;20032;-81
2022/06/18 11:01:47;;;;;;;0.00;0.00;;;25.40;99.90;;;;;;5125989;28;20059;-82
2022/06/18 11:04:23;;;;;;;0.32;0.30;;;25.60;99.90;;;;;;5142889;28;20036;-82
2022/06/18 11:06:59;;;;;;;0.10;0.10;;;25.60;99.90;;;;;;5109732;28;20060;-81
2022/06/18 11:09:32;;;;;;;0.30;0.30;;;25.80;99.90;;;;;;5110590;28;20078;-81
2022/06/18 11:12:07;;;;;;;0.35;0.20;;;25.80;99.90;;;;;;5126738;28;20172;-82
2022/06/18 11:14:42;;;;;;;0.22;0.20;;;26.00;99.90;;;;;;5109094;28;20039;-82
2022/06/18 11:17:32;;;;;;;0.32;0.28;;;25.90;99.90;;;;;;5143534;28;20040;-81
2022/06/18 11:20:23;;;;;;;0.30;0.15;;;26.00;99.90;;;;;;5125593;28;20040;-81
2022/06/18 11:22:53;;;;;;;0.13;0.13;;;25.90;99.90;;;;;;5109696;28;20049;-81
2022/06/18 11:25:28;;;;;;;0.45;0.30;;;25.70;99.90;;;;;;5120394;28;20040;-82
2022/06/18 11:28:01;;;;;;;0.20;0.20;;;25.70;99.90;;;;;;5132227;28;20122;-81
2022/06/18 11:30:41;;;;;;;0.30;0.30;;;25.70;99.90;;;;;;5099103;28;20244;-81
2022/06/18 11:33:41;;;;;;;0.20;0.20;;;25.90;99.90;;;;;;5133899;28;20048;-81
2022/06/18 11:36:14;;;;;;;0.15;0.15;;;26.00;99.90;;;;;;5085571;28;20081;-81
2022/06/18 11:38:54;;;;;;;0.22;0.20;;;26.20;99.90;;;;;;5109110;28;20035;-82
2022/06/18 11:41:42;;;;;;;0.38;0.20;;;26.30;99.90;;;;;;5131308;28;20107;-81
2022/06/18 11:44:20;;;;;;;0.35;0.20;;;26.20;99.90;;;;;;5142344;28;20039;-81
2022/06/18 11:47:03;;;;;;;0.20;0.20;;;26.20;99.90;;;;;;5125681;28;20040;-82
2022/06/18 11:49:37;;;;;;;0.20;0.20;;;26.10;99.90;;;;;;5109869;28;20507;-81
2022/06/18 11:52:31;;;;;;;0.20;0.20;;;26.00;99.90;;;;;;5113054;28;20408;-81
2022/06/18 11:55:19;;;;;;;0.15;0.10;;;26.00;99.90;;;;;;5117632;28;20063;-81
2022/06/18 11:57:56;;;;;;;0.65;0.63;;;26.20;99.90;;;;;;5112184;28;20088;-82
2022/06/18 12:00:39;;;;;;;0.10;0.10;;;26.30;99.90;;;;;;5110984;28;20035;-81
2022/06/18 12:03:30;;;;;;;0.08;0.08;;;26.10;99.90;;;;;;5130210;28;20028;-82
2022/06/18 12:06:00;;;;;;;0.20;0.10;;;26.00;99.90;;;;;;5134126;28;20036;-81
2022/06/18 12:08:28;;;;;;;0.20;0.20;;;26.00;99.90;;;;;;5129555;28;20075;-81
2022/06/18 12:11:12;;;;;;;0.30;0.28;;;26.00;99.90;;;;;;5113010;28;20040;-83
2022/06/18 12:13:53;;;;;;;0.38;0.25;;;25.80;99.90;;;;;;5146749;28;20564;-82
2022/06/18 12:16:26;;;;;;;0.30;0.30;;;25.80;99.90;;;;;;5112779;28;20076;-82
2022/06/18 12:19:14;;;;;;;0.15;0.15;;;25.80;99.90;;;;;;5112746;28;20040;-82
2022/06/18 12:21:51;;;;;;;0.32;0.20;;;25.70;99.90;;;;;;5146704;28;20036;-80
2022/06/18 12:24:48;;;;;;;0.20;0.20;;;25.70;99.90;;;;;;5112561;28;20040;-81
2022/06/18 12:27:23;;;;;;;0.40;0.38;;;25.50;99.90;;;;;;5129432;28;20040;-82
2022/06/18 12:30:09;;;;;;;0.20;0.20;;;25.20;99.90;;;;;;5112779;28;20144;-82
2022/06/18 12:32:51;;;;;;;0.15;0.15;;;25.00;99.90;;;;;;5112390;28;20056;-81
2022/06/18 12:35:25;;;;;;;0.30;0.20;;;24.90;99.90;;;;;;5129788;28;20093;-81
2022/06/18 12:38:14;;;;;;;0.20;0.20;;;25.00;99.90;;;;;;5129081;28;20036;-81
2022/06/18 12:41:07;;;;;;;0.35;0.35;;;25.00;99.90;;;;;;5112558;28;20036;-81
2022/06/18 12:43:40;;;;;;;0.60;0.40;;;25.00;99.90;;;;;;5112116;28;20044;-81
2022/06/18 12:46:25;;;;;;;0.32;0.28;;;25.10;99.90;;;;;;5112281;28;20130;-81
2022/06/18 12:49:01;;;;;;;;;;;25.20;99.90;;;;;;5113041;28;20158;-81
2022/06/18 12:51:52;;;;;;;0.10;0.10;;;25.20;99.90;;;;;;5112293;28;19916;-81
2022/06/18 12:54:18;;;;;;;0.30;0.30;;;25.20;99.90;;;;;;5112181;28;20123;-83
2022/06/18 12:57:31;;;;;;;0.20;0.20;;;25.10;99.90;;;;;;5112328;28;20127;-82
2022/06/18 13:00:18;;;;;;;0.32;0.22;;;25.10;99.90;;;;;;5112497;28;20036;-82
2022/06/18 13:03:27;;;;;;;0.70;0.43;;;25.00;99.90;;;;;;5111042;28;20043;-81
2022/06/18 13:06:09;;;;;;;0.10;0.10;;;24.90;99.90;;;;;;5120791;28;20033;-80
2022/06/18 13:09:05;;;;;;;0.30;0.30;;;25.00;99.90;;;;;;5125476;28;20103;-80
2022/06/18 13:11:51;;;;;;;0.20;0.20;;;24.80;99.90;;;;;;5125895;28;20547;-80
2022/06/18 13:14:23;;;;;;;0.25;0.20;;;24.80;99.90;;;;;;5124818;28;20040;-80
2022/06/18 13:17:04;;;;;;;0.50;0.40;;;24.70;99.90;;;;;;5111259;28;20438;-80
2022/06/18 13:19:37;;;;;;;0.40;0.20;;;24.60;99.90;;;;;;5111750;28;20028;-81
2022/06/18 13:22:04;;;;;;;0.20;0.20;;;24.60;99.90;;;;;;5128821;28;20485;-82
2022/06/18 13:31:07;;;;;;;0.80;0.40;;;24.00;99.90;;;;;;5162418;27;20044;-81
2022/06/18 13:33:55;;;;;;;0.10;0.10;;;24.00;99.90;;;;;;5110993;28;20451;-81
2022/06/18 13:37:19;;;;;;;0.20;0.20;;;24.10;99.90;;;;;;5145737;28;20067;-81
2022/06/18 13:40:00;;;;;;;0.22;0.22;;;24.00;99.90;;;;;;5086639;28;20428;-81
2022/06/18 13:42:43;;;;;;;0.13;0.13;;;24.00;99.90;;;;;;5069848;28;20056;-81
2022/06/18 13:45:28;;;;;;;0.20;0.20;;;24.00;99.90;;;;;;5117371;28;20405;-81